sensor_id;sensor_type;location;lat;lon;timestamp;pressure;altitude;pressure_sealevel;temperature;humidity
76448;BME280;65284;51.040;13.722;2024-03-29T00:01:58;98330.66;;;8.35;66.57
76448;BME280;65284;51.040;13.722;2024-03-29T00:04:23;98322.66;;;8.43;66.82
76448;BME280;65284;51.040;13.722;2024-03-29T00:06:48;98336.34;;;8.32;67.00
76448;BME280;65284;51.040;13.722;2024-03-29T00:09:14;98337.59;;;8.36;66.95
76448;BME280;65284;51.040;13.722;2024-03-29T00:11:39;98333.59;;;8.40;66.11
76448;BME280;65284;51.040;13.722;2024-03-29T00:14:05;98335.59;;;8.38;66.36
76448;BME280;65284;51.040;13.722;2024-03-29T00:16:30;98338.78;;;8.33;66.67
76448;BME280;65284;51.040;13.722;2024-03-29T00:18:56;98337.25;;;8.39;66.64
76448;BME280;65284;51.040;13.722;2024-03-29T00:21:21;98329.31;;;8.39;66.23
76448;BME280;65284;51.040;13.722;2024-03-29T00:23:47;98340.16;;;8.44;66.29
76448;BME280;65284;51.040;13.722;2024-03-29T00:26:13;98340.97;;;8.45;66.03
76448;BME280;65284;51.040;13.722;2024-03-29T00:28:39;98348.09;;;8.44;66.24
76448;BME280;65284;51.040;13.722;2024-03-29T00:31:04;98339.88;;;8.39;66.04
76448;BME280;65284;51.040;13.722;2024-03-29T00:33:30;98344.25;;;8.47;66.05
76448;BME280;65284;51.040;13.722;2024-03-29T00:35:56;98352.44;;;8.37;66.22
76448;BME280;65284;51.040;13.722;2024-03-29T00:38:21;98358.47;;;8.31;66.35
76448;BME280;65284;51.040;13.722;2024-03-29T00:40:47;98354.22;;;8.30;66.58
76448;BME280;65284;51.040;13.722;2024-03-29T00:43:12;98362.78;;;8.32;66.74
76448;BME280;65284;51.040;13.722;2024-03-29T00:45:38;98361.06;;;8.39;66.08
76448;BME280;65284;51.040;13.722;2024-03-29T00:48:03;98369.91;;;8.31;67.03
76448;BME280;65284;51.040;13.722;2024-03-29T00:50:29;98359.06;;;8.26;66.53
76448;BME280;65284;51.040;13.722;2024-03-29T00:52:54;98368.09;;;8.32;66.54
76448;BME280;65284;51.040;13.722;2024-03-29T00:55:20;98375.09;;;8.25;66.61
76448;BME280;65284;51.040;13.722;2024-03-29T00:57:45;98371.56;;;8.17;66.70
76448;BME280;65284;51.040;13.722;2024-03-29T01:00:11;98372.97;;;8.13;67.47
76448;BME280;65284;51.040;13.722;2024-03-29T01:02:36;98381.72;;;8.14;67.05
76448;BME280;65284;51.040;13.722;2024-03-29T01:05:02;98378.50;;;8.18;66.80
76448;BME280;65284;51.040;13.722;2024-03-29T01:07:28;98380.25;;;8.11;66.97
76448;BME280;65284;51.040;13.722;2024-03-29T01:09:53;98384.16;;;8.15;67.31
76448;BME280;65284;51.040;13.722;2024-03-29T01:12:19;98391.09;;;8.16;66.64
76448;BME280;65284;51.040;13.722;2024-03-29T01:14:45;98393.84;;;8.08;67.07
76448;BME280;65284;51.040;13.722;2024-03-29T01:17:10;98402.75;;;8.07;67.25
76448;BME280;65284;51.040;13.722;2024-03-29T01:19:36;98401.69;;;8.16;66.91
76448;BME280;65284;51.040;13.722;2024-03-29T01:22:01;98410.16;;;8.12;66.83
76448;BME280;65284;51.040;13.722;2024-03-29T01:24:27;98413.69;;;8.04;67.05
76448;BME280;65284;51.040;13.722;2024-03-29T01:26:53;98404.34;;;8.02;66.98
76448;BME280;65284;51.040;13.722;2024-03-29T01:29:19;98410.44;;;8.02;67.05
76448;BME280;65284;51.040;13.722;2024-03-29T01:31:44;98422.34;;;8.13;66.14
76448;BME280;65284;51.040;13.722;2024-03-29T01:34:10;98414.31;;;8.21;66.05
76448;BME280;65284;51.040;13.722;2024-03-29T01:36:35;98432.13;;;8.12;66.20
76448;BME280;65284;51.040;13.722;2024-03-29T01:39:01;98417.81;;;8.07;66.29
76448;BME280;65284;51.040;13.722;2024-03-29T01:41:26;98411.34;;;8.09;66.08
76448;BME280;65284;51.040;13.722;2024-03-29T01:43:53;98406.41;;;8.06;65.83
76448;BME280;65284;51.040;13.722;2024-03-29T01:46:23;98408.41;;;8.04;66.16
76448;BME280;65284;51.040;13.722;2024-03-29T01:48:50;98401.56;;;8.10;65.19
76448;BME280;65284;51.040;13.722;2024-03-29T01:51:16;98405.97;;;8.03;65.57
76448;BME280;65284;51.040;13.722;2024-03-29T01:53:43;98410.81;;;7.99;65.86
76448;BME280;65284;51.040;13.722;2024-03-29T01:56:10;98403.25;;;7.96;66.38
76448;BME280;65284;51.040;13.722;2024-03-29T01:58:36;98394.03;;;7.92;66.09
76448;BME280;65284;51.040;13.722;2024-03-29T02:01:04;98391.13;;;7.87;66.41
76448;BME280;65284;51.040;13.722;2024-03-29T02:03:31;98398.78;;;7.82;66.50
76448;BME280;65284;51.040;13.722;2024-03-29T02:05:57;98402.25;;;7.67;68.38
76448;BME280;65284;51.040;13.722;2024-03-29T02:08:25;98406.88;;;7.65;68.91
76448;BME280;65284;51.040;13.722;2024-03-29T02:10:51;98405.34;;;7.56;69.99
76448;BME280;65284;51.040;13.722;2024-03-29T02:13:16;98399.88;;;7.43;70.60
76448;BME280;65284;51.040;13.722;2024-03-29T02:15:42;98400.94;;;7.34;71.55
76448;BME280;65284;51.040;13.722;2024-03-29T02:18:08;98395.53;;;7.27;71.89
76448;BME280;65284;51.040;13.722;2024-03-29T02:20:34;98387.06;;;7.17;72.71
76448;BME280;65284;51.040;13.722;2024-03-29T02:23:06;98380.31;;;7.14;73.11
76448;BME280;65284;51.040;13.722;2024-03-29T02:25:33;98378.22;;;7.10;73.18
76448;BME280;65284;51.040;13.722;2024-03-29T02:27:59;98381.84;;;7.09;73.29
76448;BME280;65284;51.040;13.722;2024-03-29T02:30:26;98374.34;;;6.97;73.71
76448;BME280;65284;51.040;13.722;2024-03-29T02:32:51;98369.34;;;6.88;74.12
76448;BME280;65284;51.040;13.722;2024-03-29T02:35:17;98367.72;;;6.87;74.14
76448;BME280;65284;51.040;13.722;2024-03-29T02:37:42;98385.41;;;6.78;75.15
76448;BME280;65284;51.040;13.722;2024-03-29T02:40:08;98389.03;;;6.77;75.09
76448;BME280;65284;51.040;13.722;2024-03-29T02:42:34;98384.81;;;6.68;75.43
76448;BME280;65284;51.040;13.722;2024-03-29T02:45:01;98380.72;;;6.65;75.53
76448;BME280;65284;51.040;13.722;2024-03-29T02:47:27;98394.44;;;6.60;76.24
76448;BME280;65284;51.040;13.722;2024-03-29T02:49:53;98392.97;;;6.58;76.54
76448;BME280;65284;51.040;13.722;2024-03-29T02:52:18;98388.69;;;6.57;76.67
76448;BME280;65284;51.040;13.722;2024-03-29T02:54:43;98396.78;;;6.55;76.63
76448;BME280;65284;51.040;13.722;2024-03-29T02:57:09;98396.31;;;6.52;77.04
76448;BME280;65284;51.040;13.722;2024-03-29T02:59:34;98389.75;;;6.48;77.02
76448;BME280;65284;51.040;13.722;2024-03-29T03:02:00;98401.94;;;6.49;76.39
76448;BME280;65284;51.040;13.722;2024-03-29T03:04:26;98403.91;;;6.47;77.07
76448;BME280;65284;51.040;13.722;2024-03-29T03:06:51;98404.25;;;6.44;76.86
76448;BME280;65284;51.040;13.722;2024-03-29T03:09:17;98400.63;;;6.45;77.30
76448;BME280;65284;51.040;13.722;2024-03-29T03:12:01;98402.97;;;6.40;77.16
76448;BME280;65284;51.040;13.722;2024-03-29T03:14:26;98405.97;;;6.36;77.36
76448;BME280;65284;51.040;13.722;2024-03-29T03:16:52;98415.19;;;6.32;77.44
76448;BME280;65284;51.040;13.722;2024-03-29T03:19:18;98418.03;;;6.31;77.48
76448;BME280;65284;51.040;13.722;2024-03-29T03:21:43;98419.50;;;6.33;76.75
76448;BME280;65284;51.040;13.722;2024-03-29T03:24:09;98424.78;;;6.33;76.85
76448;BME280;65284;51.040;13.722;2024-03-29T03:26:35;98419.84;;;6.30;76.62
76448;BME280;65284;51.040;13.722;2024-03-29T03:29:00;98422.63;;;6.29;76.99
76448;BME280;65284;51.040;13.722;2024-03-29T03:31:26;98424.00;;;6.25;77.40
76448;BME280;65284;51.040;13.722;2024-03-29T03:33:51;98419.22;;;6.20;77.57
76448;BME280;65284;51.040;13.722;2024-03-29T03:36:17;98417.94;;;6.16;78.08
76448;BME280;65284;51.040;13.722;2024-03-29T03:38:42;98414.28;;;6.17;78.46
76448;BME280;65284;51.040;13.722;2024-03-29T03:41:08;98408.19;;;6.17;78.57
76448;BME280;65284;51.040;13.722;2024-03-29T03:43:33;98397.00;;;6.14;79.25
76448;BME280;65284;51.040;13.722;2024-03-29T03:46:02;98389.91;;;6.15;79.44
76448;BME280;65284;51.040;13.722;2024-03-29T03:48:28;98397.19;;;6.13;79.58
76448;BME280;65284;51.040;13.722;2024-03-29T03:50:56;98395.53;;;6.12;79.67
76448;BME280;65284;51.040;13.722;2024-03-29T03:53:22;98408.06;;;6.10;79.96
76448;BME280;65284;51.040;13.722;2024-03-29T03:55:48;98415.16;;;6.09;80.25
76448;BME280;65284;51.040;13.722;2024-03-29T03:58:13;98413.38;;;6.02;80.62
76448;BME280;65284;51.040;13.722;2024-03-29T04:00:39;98408.41;;;6.07;80.38
76448;BME280;65284;51.040;13.722;2024-03-29T04:03:04;98398.84;;;6.06;80.30
76448;BME280;65284;51.040;13.722;2024-03-29T04:05:30;98405.94;;;6.05;80.50
76448;BME280;65284;51.040;13.722;2024-03-29T04:07:57;98403.50;;;6.04;80.31
76448;BME280;65284;51.040;13.722;2024-03-29T04:10:22;98393.28;;;6.01;80.25
76448;BME280;65284;51.040;13.722;2024-03-29T04:12:50;98387.19;;;6.00;80.38
76448;BME280;65284;51.040;13.722;2024-03-29T04:15:16;98394.13;;;6.01;79.93
76448;BME280;65284;51.040;13.722;2024-03-29T04:17:41;98386.03;;;6.03;79.84
76448;BME280;65284;51.040;13.722;2024-03-29T04:20:07;98402.66;;;6.03;79.88
76448;BME280;65284;51.040;13.722;2024-03-29T04:22:33;98390.94;;;6.06;79.66
76448;BME280;65284;51.040;13.722;2024-03-29T04:24:58;98391.25;;;6.11;79.62
76448;BME280;65284;51.040;13.722;2024-03-29T04:27:25;98398.50;;;6.09;79.57
76448;BME280;65284;51.040;13.722;2024-03-29T04:29:51;98390.91;;;6.14;79.40
76448;BME280;65284;51.040;13.722;2024-03-29T04:32:17;98396.84;;;6.16;79.26
76448;BME280;65284;51.040;13.722;2024-03-29T04:34:46;98403.75;;;6.17;78.68
76448;BME280;65284;51.040;13.722;2024-03-29T04:37:11;98393.03;;;6.19;79.35
76448;BME280;65284;51.040;13.722;2024-03-29T04:39:37;98397.16;;;6.21;79.03
76448;BME280;65284;51.040;13.722;2024-03-29T04:42:02;98388.56;;;6.27;78.62
76448;BME280;65284;51.040;13.722;2024-03-29T04:44:28;98387.91;;;6.25;78.58
76448;BME280;65284;51.040;13.722;2024-03-29T04:46:54;98378.03;;;6.19;78.80
76448;BME280;65284;51.040;13.722;2024-03-29T04:49:22;98377.03;;;6.20;78.67
76448;BME280;65284;51.040;13.722;2024-03-29T04:51:54;98379.03;;;6.18;78.55
76448;BME280;65284;51.040;13.722;2024-03-29T04:54:19;98370.13;;;6.19;78.89
76448;BME280;65284;51.040;13.722;2024-03-29T04:56:45;98371.41;;;6.23;78.12
76448;BME280;65284;51.040;13.722;2024-03-29T04:59:10;98383.28;;;6.27;78.57
76448;BME280;65284;51.040;13.722;2024-03-29T05:01:36;98378.97;;;6.26;78.38
76448;BME280;65284;51.040;13.722;2024-03-29T05:04:02;98393.81;;;6.27;78.60
76448;BME280;65284;51.040;13.722;2024-03-29T05:06:29;98389.84;;;6.31;78.58
76448;BME280;65284;51.040;13.722;2024-03-29T05:08:55;98391.13;;;6.35;77.92
76448;BME280;65284;51.040;13.722;2024-03-29T05:11:20;98397.25;;;6.36;78.56
76448;BME280;65284;51.040;13.722;2024-03-29T05:13:47;98385.50;;;6.38;78.31
76448;BME280;65284;51.040;13.722;2024-03-29T05:16:12;98380.53;;;6.44;78.21
76448;BME280;65284;51.040;13.722;2024-03-29T05:18:38;98389.41;;;6.51;78.68
76448;BME280;65284;51.040;13.722;2024-03-29T05:21:03;98381.41;;;6.59;77.68
76448;BME280;65284;51.040;13.722;2024-03-29T05:23:29;98382.72;;;6.63;77.76
76448;BME280;65284;51.040;13.722;2024-03-29T05:25:54;98391.91;;;6.67;77.30
76448;BME280;65284;51.040;13.722;2024-03-29T05:28:21;98399.47;;;6.70;77.95
76448;BME280;65284;51.040;13.722;2024-03-29T05:30:46;98397.72;;;6.86;78.14
76448;BME280;65284;51.040;13.722;2024-03-29T05:33:12;98398.72;;;6.84;79.16
76448;BME280;65284;51.040;13.722;2024-03-29T05:35:38;98394.09;;;6.87;77.74
76448;BME280;65284;51.040;13.722;2024-03-29T05:38:03;98380.91;;;6.87;78.18
76448;BME280;65284;51.040;13.722;2024-03-29T05:40:29;98375.78;;;6.85;77.85
76448;BME280;65284;51.040;13.722;2024-03-29T05:42:54;98364.72;;;6.90;77.13
76448;BME280;65284;51.040;13.722;2024-03-29T05:45:30;98371.25;;;6.94;77.28
76448;BME280;65284;51.040;13.722;2024-03-29T05:47:57;98380.09;;;7.01;76.94
76448;BME280;65284;51.040;13.722;2024-03-29T05:50:24;98387.19;;;7.00;77.12
76448;BME280;65284;51.040;13.722;2024-03-29T05:52:51;98393.94;;;7.03;77.14
76448;BME280;65284;51.040;13.722;2024-03-29T05:55:17;98398.50;;;7.09;76.62
76448;BME280;65284;51.040;13.722;2024-03-29T05:57:43;98387.50;;;7.05;77.01
76448;BME280;65284;51.040;13.722;2024-03-29T06:00:12;98391.59;;;7.08;77.40
76448;BME280;65284;51.040;13.722;2024-03-29T06:02:38;98397.69;;;7.09;77.22
76448;BME280;65284;51.040;13.722;2024-03-29T06:05:04;98399.69;;;7.06;78.04
76448;BME280;65284;51.040;13.722;2024-03-29T06:07:31;98398.50;;;7.09;77.96
76448;BME280;65284;51.040;13.722;2024-03-29T06:09:59;98403.44;;;7.12;78.00
76448;BME280;65284;51.040;13.722;2024-03-29T06:12:25;98406.72;;;7.14;78.09
76448;BME280;65284;51.040;13.722;2024-03-29T06:14:51;98408.34;;;7.15;78.02
76448;BME280;65284;51.040;13.722;2024-03-29T06:17:35;98411.66;;;7.17;77.86
76448;BME280;65284;51.040;13.722;2024-03-29T06:20:02;98419.91;;;7.14;78.12
76448;BME280;65284;51.040;13.722;2024-03-29T06:22:29;98418.56;;;7.18;78.51
76448;BME280;65284;51.040;13.722;2024-03-29T06:24:58;98427.78;;;7.22;77.63
76448;BME280;65284;51.040;13.722;2024-03-29T06:27:25;98428.03;;;7.27;77.45
76448;BME280;65284;51.040;13.722;2024-03-29T06:29:50;98424.44;;;7.28;77.02
76448;BME280;65284;51.040;13.722;2024-03-29T06:32:16;98430.97;;;7.33;76.49
76448;BME280;65284;51.040;13.722;2024-03-29T06:34:46;98427.44;;;7.40;76.12
76448;BME280;65284;51.040;13.722;2024-03-29T06:37:12;98439.28;;;7.44;75.72
76448;BME280;65284;51.040;13.722;2024-03-29T06:39:38;98442.69;;;7.53;75.24
76448;BME280;65284;51.040;13.722;2024-03-29T06:42:03;98445.97;;;7.55;75.02
76448;BME280;65284;51.040;13.722;2024-03-29T06:44:31;98445.91;;;7.63;74.16
76448;BME280;65284;51.040;13.722;2024-03-29T06:46:56;98445.91;;;7.63;74.61
76448;BME280;65284;51.040;13.722;2024-03-29T06:49:22;98448.78;;;7.68;74.82
76448;BME280;65284;51.040;13.722;2024-03-29T06:51:47;98451.44;;;7.68;74.40
76448;BME280;65284;51.040;13.722;2024-03-29T06:54:13;98451.72;;;7.73;74.07
76448;BME280;65284;51.040;13.722;2024-03-29T06:56:38;98450.72;;;7.74;73.84
76448;BME280;65284;51.040;13.722;2024-03-29T06:59:04;98456.13;;;7.81;73.49
76448;BME280;65284;51.040;13.722;2024-03-29T07:01:29;98451.28;;;7.85;73.11
76448;BME280;65284;51.040;13.722;2024-03-29T07:03:55;98448.91;;;7.90;73.00
76448;BME280;65284;51.040;13.722;2024-03-29T07:06:21;98445.53;;;7.96;72.49
76448;BME280;65284;51.040;13.722;2024-03-29T07:08:46;98448.28;;;8.03;71.59
76448;BME280;65284;51.040;13.722;2024-03-29T07:11:12;98454.38;;;8.03;71.97
76448;BME280;65284;51.040;13.722;2024-03-29T07:13:38;98451.81;;;8.10;71.36
76448;BME280;65284;51.040;13.722;2024-03-29T07:16:04;98458.56;;;8.12;71.13
76448;BME280;65284;51.040;13.722;2024-03-29T07:18:29;98455.56;;;8.15;70.93
76448;BME280;65284;51.040;13.722;2024-03-29T07:20:55;98458.75;;;8.26;70.38
76448;BME280;65284;51.040;13.722;2024-03-29T07:23:21;98464.03;;;8.26;69.80
76448;BME280;65284;51.040;13.722;2024-03-29T07:26:00;98463.66;;;8.29;70.13
76448;BME280;65284;51.040;13.722;2024-03-29T07:28:27;98453.34;;;8.34;69.48
76448;BME280;65284;51.040;13.722;2024-03-29T07:30:53;98462.94;;;8.35;68.86
76448;BME280;65284;51.040;13.722;2024-03-29T07:33:22;98455.91;;;8.42;68.79
76448;BME280;65284;51.040;13.722;2024-03-29T07:35:54;98460.84;;;8.45;68.43
76448;BME280;65284;51.040;13.722;2024-03-29T07:38:23;98461.09;;;8.50;68.03
76448;BME280;65284;51.040;13.722;2024-03-29T07:40:49;98451.88;;;8.61;68.12
76448;BME280;65284;51.040;13.722;2024-03-29T07:43:15;98462.84;;;8.58;67.80
76448;BME280;65284;51.040;13.722;2024-03-29T07:45:44;98457.97;;;8.61;67.81
76448;BME280;65284;51.040;13.722;2024-03-29T07:48:12;98436.59;;;8.63;67.74
76448;BME280;65284;51.040;13.722;2024-03-29T07:50:39;98443.78;;;8.69;67.20
76448;BME280;65284;51.040;13.722;2024-03-29T07:53:05;98431.28;;;8.78;66.66
76448;BME280;65284;51.040;13.722;2024-03-29T07:55:30;98443.50;;;8.79;67.14
76448;BME280;65284;51.040;13.722;2024-03-29T07:57:56;98457.63;;;8.86;66.66
76448;BME280;65284;51.040;13.722;2024-03-29T08:00:21;98451.50;;;8.85;66.10
76448;BME280;65284;51.040;13.722;2024-03-29T08:02:47;98464.16;;;8.90;65.67
76448;BME280;65284;51.040;13.722;2024-03-29T08:05:13;98468.91;;;8.95;65.23
76448;BME280;65284;51.040;13.722;2024-03-29T08:07:39;98466.53;;;9.00;65.01
76448;BME280;65284;51.040;13.722;2024-03-29T08:10:04;98453.78;;;9.10;64.99
76448;BME280;65284;51.040;13.722;2024-03-29T08:12:31;98466.25;;;9.16;64.37
76448;BME280;65284;51.040;13.722;2024-03-29T08:14:58;98471.25;;;9.26;63.10
76448;BME280;65284;51.040;13.722;2024-03-29T08:17:24;98481.47;;;9.29;62.46
76448;BME280;65284;51.040;13.722;2024-03-29T08:19:49;98501.91;;;9.35;62.60
76448;BME280;65284;51.040;13.722;2024-03-29T08:22:15;98490.94;;;9.38;61.73
76448;BME280;65284;51.040;13.722;2024-03-29T08:24:41;98497.09;;;9.45;62.51
76448;BME280;65284;51.040;13.722;2024-03-29T08:27:06;98508.94;;;9.49;61.35
76448;BME280;65284;51.040;13.722;2024-03-29T08:29:32;98510.59;;;9.50;61.66
76448;BME280;65284;51.040;13.722;2024-03-29T08:31:57;98512.63;;;9.48;61.23
76448;BME280;65284;51.040;13.722;2024-03-29T08:34:23;98523.22;;;9.48;61.53
76448;BME280;65284;51.040;13.722;2024-03-29T08:36:48;98534.84;;;9.47;61.40
76448;BME280;65284;51.040;13.722;2024-03-29T08:39:13;98546.63;;;9.45;61.82
76448;BME280;65284;51.040;13.722;2024-03-29T08:41:39;98542.78;;;9.47;61.49
76448;BME280;65284;51.040;13.722;2024-03-29T08:44:06;98527.38;;;9.57;62.40
76448;BME280;65284;51.040;13.722;2024-03-29T08:46:32;98531.28;;;9.62;61.92
76448;BME280;65284;51.040;13.722;2024-03-29T08:48:57;98519.28;;;9.66;62.52
76448;BME280;65284;51.040;13.722;2024-03-29T08:51:23;98525.44;;;9.73;62.07
76448;BME280;65284;51.040;13.722;2024-03-29T08:53:49;98513.47;;;9.77;61.94
76448;BME280;65284;51.040;13.722;2024-03-29T08:56:15;98515.13;;;9.85;61.64
76448;BME280;65284;51.040;13.722;2024-03-29T08:58:41;98501.09;;;9.91;61.43
76448;BME280;65284;51.040;13.722;2024-03-29T09:01:06;98486.88;;;9.98;61.22
76448;BME280;65284;51.040;13.722;2024-03-29T09:03:32;98477.59;;;10.16;60.83
76448;BME280;65284;51.040;13.722;2024-03-29T09:05:57;98463.81;;;10.27;58.63
76448;BME280;65284;51.040;13.722;2024-03-29T09:08:22;98466.75;;;10.45;56.73
76448;BME280;65284;51.040;13.722;2024-03-29T09:10:48;98478.69;;;10.76;53.98
76448;BME280;65284;51.040;13.722;2024-03-29T09:13:13;98484.47;;;11.00;52.41
76448;BME280;65284;51.040;13.722;2024-03-29T09:15:39;98464.47;;;11.17;51.21
76448;BME280;65284;51.040;13.722;2024-03-29T09:18:05;98469.38;;;11.27;51.03
76448;BME280;65284;51.040;13.722;2024-03-29T09:20:44;98454.06;;;11.35;49.80
76448;BME280;65284;51.040;13.722;2024-03-29T09:23:10;98437.91;;;11.50;47.89
76448;BME280;65284;51.040;13.722;2024-03-29T09:25:40;98449.38;;;11.51;47.50
76448;BME280;65284;51.040;13.722;2024-03-29T09:28:05;98444.84;;;11.65;46.88
76448;BME280;65284;51.040;13.722;2024-03-29T09:30:32;98442.41;;;11.63;47.24
76448;BME280;65284;51.040;13.722;2024-03-29T09:32:57;98429.31;;;11.75;47.25
76448;BME280;65284;51.040;13.722;2024-03-29T09:35:23;98432.97;;;11.80;46.64
76448;BME280;65284;51.040;13.722;2024-03-29T09:37:48;98410.47;;;11.90;46.36
76448;BME280;65284;51.040;13.722;2024-03-29T09:40:15;98401.44;;;12.04;46.07
76448;BME280;65284;51.040;13.722;2024-03-29T09:42:41;98398.97;;;12.02;46.51
76448;BME280;65284;51.040;13.722;2024-03-29T09:45:07;98399.75;;;12.16;46.22
76448;BME280;65284;51.040;13.722;2024-03-29T09:47:33;98392.41;;;12.05;47.34
76448;BME280;65284;51.040;13.722;2024-03-29T09:50:03;98387.53;;;12.02;47.26
76448;BME280;65284;51.040;13.722;2024-03-29T09:52:31;98371.50;;;12.15;46.72
76448;BME280;65284;51.040;13.722;2024-03-29T09:54:58;98374.34;;;12.20;47.18
76448;BME280;65284;51.040;13.722;2024-03-29T09:57:25;98370.84;;;12.26;46.68
76448;BME280;65284;51.040;13.722;2024-03-29T09:59:55;98367.75;;;12.29;46.52
76448;BME280;65284;51.040;13.722;2024-03-29T10:02:21;98361.22;;;12.25;46.15
76448;BME280;65284;51.040;13.722;2024-03-29T10:04:50;98358.56;;;12.25;45.68
76448;BME280;65284;51.040;13.722;2024-03-29T10:07:17;98350.56;;;12.25;46.23
76448;BME280;65284;51.040;13.722;2024-03-29T10:09:43;98364.91;;;12.24;45.94
76448;BME280;65284;51.040;13.722;2024-03-29T10:12:09;98364.13;;;12.17;46.20
76448;BME280;65284;51.040;13.722;2024-03-29T10:14:45;98373.91;;;12.23;45.83
76448;BME280;65284;51.040;13.722;2024-03-29T10:17:16;98383.53;;;12.24;45.64
76448;BME280;65284;51.040;13.722;2024-03-29T10:19:42;98378.81;;;12.26;45.88
76448;BME280;65284;51.040;13.722;2024-03-29T10:22:08;98378.41;;;12.29;45.43
76448;BME280;65284;51.040;13.722;2024-03-29T10:24:33;98372.66;;;12.33;45.42
76448;BME280;65284;51.040;13.722;2024-03-29T10:26:59;98365.47;;;12.40;45.55
76448;BME280;65284;51.040;13.722;2024-03-29T10:29:28;98362.72;;;12.53;45.11
76448;BME280;65284;51.040;13.722;2024-03-29T10:31:55;98349.56;;;12.58;44.92
76448;BME280;65284;51.040;13.722;2024-03-29T10:34:21;98345.38;;;12.75;44.27
76448;BME280;65284;51.040;13.722;2024-03-29T10:36:47;98330.13;;;12.83;44.37
76448;BME280;65284;51.040;13.722;2024-03-29T10:39:12;98334.59;;;12.89;44.44
76448;BME280;65284;51.040;13.722;2024-03-29T10:41:42;98316.84;;;13.01;44.30
76448;BME280;65284;51.040;13.722;2024-03-29T10:44:12;98311.88;;;13.11;44.22
76448;BME280;65284;51.040;13.722;2024-03-29T10:46:38;98295.00;;;13.17;44.03
76448;BME280;65284;51.040;13.722;2024-03-29T10:49:08;98289.22;;;13.20;43.17
76448;BME280;65284;51.040;13.722;2024-03-29T10:51:41;98302.31;;;13.29;43.19
76448;BME280;65284;51.040;13.722;2024-03-29T10:54:10;98300.09;;;13.44;42.92
76448;BME280;65284;51.040;13.722;2024-03-29T10:56:37;98308.00;;;13.51;43.01
76448;BME280;65284;51.040;13.722;2024-03-29T10:59:12;98311.88;;;13.55;42.92
76448;BME280;65284;51.040;13.722;2024-03-29T11:01:44;98315.22;;;13.69;42.72
76448;BME280;65284;51.040;13.722;2024-03-29T11:04:17;98312.69;;;13.74;42.68
76448;BME280;65284;51.040;13.722;2024-03-29T11:06:46;98315.44;;;13.85;42.60
76448;BME280;65284;51.040;13.722;2024-03-29T11:09:13;98319.59;;;13.81;42.81
76448;BME280;65284;51.040;13.722;2024-03-29T11:11:44;98317.28;;;13.85;42.65
76448;BME280;65284;51.040;13.722;2024-03-29T11:14:16;98318.19;;;13.79;42.70
76448;BME280;65284;51.040;13.722;2024-03-29T11:16:43;98316.63;;;13.71;43.43
76448;BME280;65284;51.040;13.722;2024-03-29T11:19:12;98317.59;;;13.77;42.73
76448;BME280;65284;51.040;13.722;2024-03-29T11:21:39;98317.72;;;13.82;42.44
76448;BME280;65284;51.040;13.722;2024-03-29T11:24:07;98330.69;;;13.97;41.63
76448;BME280;65284;51.040;13.722;2024-03-29T11:26:34;98336.59;;;13.99;42.04
76448;BME280;65284;51.040;13.722;2024-03-29T11:29:00;98326.44;;;14.07;41.82
76448;BME280;65284;51.040;13.722;2024-03-29T11:31:26;98327.22;;;13.96;41.95
76448;BME280;65284;51.040;13.722;2024-03-29T11:33:51;98333.81;;;13.94;41.76
76448;BME280;65284;51.040;13.722;2024-03-29T11:36:20;98340.94;;;14.00;41.84
76448;BME280;65284;51.040;13.722;2024-03-29T11:38:50;98338.09;;;13.95;42.61
76448;BME280;65284;51.040;13.722;2024-03-29T11:41:18;98345.75;;;13.91;42.12
76448;BME280;65284;51.040;13.722;2024-03-29T11:43:45;98347.88;;;14.01;41.78
76448;BME280;65284;51.040;13.722;2024-03-29T11:46:13;98342.59;;;14.13;41.33
76448;BME280;65284;51.040;13.722;2024-03-29T11:48:39;98345.41;;;14.18;41.49
76448;BME280;65284;51.040;13.722;2024-03-29T11:51:06;98340.84;;;14.06;42.17
76448;BME280;65284;51.040;13.722;2024-03-29T11:53:34;98344.56;;;14.05;42.06
76448;BME280;65284;51.040;13.722;2024-03-29T11:56:00;98342.91;;;14.04;42.16
76448;BME280;65284;51.040;13.722;2024-03-29T11:58:30;98332.81;;;14.06;42.03
76448;BME280;65284;51.040;13.722;2024-03-29T12:00:57;98334.75;;;14.18;41.35
76448;BME280;65284;51.040;13.722;2024-03-29T12:03:25;98333.09;;;14.17;41.89
76448;BME280;65284;51.040;13.722;2024-03-29T12:05:52;98337.88;;;14.15;42.43
76448;BME280;65284;51.040;13.722;2024-03-29T12:08:21;98348.09;;;14.18;41.78
76448;BME280;65284;51.040;13.722;2024-03-29T12:10:46;98339.03;;;14.19;42.38
76448;BME280;65284;51.040;13.722;2024-03-29T12:13:15;98341.25;;;14.22;42.28
76448;BME280;65284;51.040;13.722;2024-03-29T12:15:41;98343.91;;;14.22;42.20
76448;BME280;65284;51.040;13.722;2024-03-29T12:18:06;98344.66;;;14.29;42.09
76448;BME280;65284;51.040;13.722;2024-03-29T12:20:32;98346.75;;;14.27;42.50
76448;BME280;65284;51.040;13.722;2024-03-29T12:23:02;98350.81;;;14.29;41.64
76448;BME280;65284;51.040;13.722;2024-03-29T12:25:28;98354.66;;;14.33;42.03
76448;BME280;65284;51.040;13.722;2024-03-29T12:27:54;98363.03;;;14.37;42.14
76448;BME280;65284;51.040;13.722;2024-03-29T12:30:20;98366.75;;;14.36;42.36
76448;BME280;65284;51.040;13.722;2024-03-29T12:32:46;98363.03;;;14.37;41.90
76448;BME280;65284;51.040;13.722;2024-03-29T12:35:14;98364.22;;;14.41;42.31
76448;BME280;65284;51.040;13.722;2024-03-29T12:37:47;98361.00;;;14.51;42.01
76448;BME280;65284;51.040;13.722;2024-03-29T12:40:18;98362.84;;;14.50;42.71
76448;BME280;65284;51.040;13.722;2024-03-29T12:42:50;98353.63;;;14.53;42.31
76448;BME280;65284;51.040;13.722;2024-03-29T12:45:20;98357.22;;;14.59;41.95
76448;BME280;65284;51.040;13.722;2024-03-29T12:47:46;98353.50;;;14.60;41.51
76448;BME280;65284;51.040;13.722;2024-03-29T12:50:26;98356.53;;;14.63;41.02
76448;BME280;65284;51.040;13.722;2024-03-29T12:53:00;98360.16;;;14.69;40.91
76448;BME280;65284;51.040;13.722;2024-03-29T12:55:28;98361.38;;;14.96;44.13